createdAt,value
2023-08-11T00:01:24.152Z,101575.50
2023-08-11T00:03:51.032Z,101563.69
2023-08-11T00:06:17.655Z,101563.56
2023-08-11T00:08:44.448Z,101571.63
2023-08-11T00:11:12.563Z,101562.56
2023-08-11T00:13:39.131Z,101559.25
2023-08-11T00:16:06.200Z,101537.75
2023-08-11T00:18:32.917Z,101551.06
2023-08-11T00:21:00.436Z,101543.28
2023-08-11T00:23:27.047Z,101539.13
2023-08-11T00:25:53.588Z,101550.09
2023-08-11T00:28:20.119Z,101541.91
2023-08-11T00:30:46.651Z,101540.09
2023-08-11T00:33:13.159Z,101542.19
2023-08-11T00:35:41.957Z,101544.97
2023-08-11T00:38:08.608Z,101544.56
2023-08-11T00:40:35.201Z,101544.84
2023-08-11T00:43:02.025Z,101538.59
2023-08-11T00:45:29.050Z,101531.50
2023-08-11T00:47:55.863Z,101539.25
2023-08-11T00:50:22.546Z,101536.63
2023-08-11T00:52:50.850Z,101545.63
2023-08-11T00:55:20.037Z,101534.94
2023-08-11T00:57:47.573Z,101549.50
2023-08-11T01:00:15.463Z,101546.59
2023-08-11T01:02:43.984Z,101531.75
2023-08-11T01:05:15.820Z,101537.69
2023-08-11T01:07:57.598Z,101540.91
2023-08-11T01:10:58.348Z,101539.81
2023-08-11T01:13:30.285Z,101522.28
2023-08-11T01:16:01.497Z,101532.28
2023-08-11T01:18:29.855Z,101528.38
2023-08-11T01:21:01.149Z,101530.84
2023-08-11T01:23:27.816Z,101521.28
2023-08-11T01:25:54.856Z,101524.59
2023-08-11T01:28:21.588Z,101506.53
2023-08-11T01:30:49.463Z,101509.06
2023-08-11T01:33:16.416Z,101509.19
2023-08-11T01:35:43.034Z,101502.78
2023-08-11T01:38:10.701Z,101503.63
2023-08-11T01:40:38.595Z,101496.97
2023-08-11T01:43:08.287Z,101490.75
2023-08-11T01:45:35.256Z,101501.31
2023-08-11T01:48:03.615Z,101500.31
2023-08-11T01:50:31.605Z,101499.78
2023-08-11T01:52:58.545Z,101490.78
2023-08-11T01:55:26.422Z,101503.00
2023-08-11T01:57:59.380Z,101503.16
2023-08-11T02:00:27.743Z,101484.00
2023-08-11T02:02:54.873Z,101487.06
2023-08-11T02:05:21.784Z,101489.56
2023-08-11T02:07:48.368Z,101491.66
2023-08-11T02:10:15.022Z,101491.41
2023-08-11T02:12:41.819Z,101484.75
2023-08-11T02:15:09.649Z,101486.72
2023-08-11T02:17:36.432Z,101489.47
2023-08-11T02:20:19.327Z,101495.47
2023-08-11T02:22:46.197Z,101491.97
2023-08-11T02:25:12.941Z,101490.88
2023-08-11T02:27:39.621Z,101491.84
2023-08-11T02:30:08.404Z,101484.75
2023-08-11T02:32:35.049Z,101489.91
2023-08-11T02:35:01.717Z,101483.09
2023-08-11T02:37:28.319Z,101488.94
2023-08-11T02:39:54.836Z,101497.53
2023-08-11T02:42:21.959Z,101486.16
2023-08-11T02:44:48.540Z,101487.53
2023-08-11T02:47:15.065Z,101495.03
2023-08-11T02:49:41.630Z,101495.03
2023-08-11T02:52:08.832Z,101486.00
2023-08-11T02:54:35.684Z,101472.13
2023-08-11T02:57:03.008Z,101467.69
2023-08-11T02:59:29.581Z,101473.94
2023-08-11T03:01:56.224Z,101475.34
2023-08-11T03:04:22.889Z,101475.19
2023-08-11T03:06:49.438Z,101480.06
2023-08-11T03:09:15.962Z,101461.31
2023-08-11T03:11:42.576Z,101462.44
2023-08-11T03:14:09.125Z,101476.16
2023-08-11T03:16:35.709Z,101473.69
2023-08-11T03:19:02.306Z,101473.13
2023-08-11T03:21:28.900Z,101470.91
2023-08-11T03:23:55.650Z,101477.41
2023-08-11T03:26:22.254Z,101471.25
2023-08-11T03:28:48.807Z,101480.31
2023-08-11T03:31:15.366Z,101482.28
2023-08-11T03:33:41.978Z,101481.44
2023-08-11T03:36:08.512Z,101476.72
2023-08-11T03:38:35.063Z,101485.59
2023-08-11T03:41:01.923Z,101489.22
2023-08-11T03:43:28.502Z,101484.91
2023-08-11T03:45:55.001Z,101481.16
2023-08-11T03:48:22.020Z,101482.53
2023-08-11T03:50:48.583Z,101480.75
2023-08-11T03:53:15.490Z,101486.84
2023-08-11T03:55:44.702Z,101483.22
2023-08-11T03:58:14.129Z,101485.88
2023-08-11T04:00:41.534Z,101483.53
2023-08-11T04:03:10.482Z,101479.75
2023-08-11T04:05:37.547Z,101467.84
2023-08-11T04:08:05.645Z,101483.94
2023-08-11T04:10:32.484Z,101474.38
2023-08-11T04:12:59.271Z,101475.34
2023-08-11T04:15:25.991Z,101467.97
2023-08-11T04:17:52.627Z,101475.75
2023-08-11T04:20:19.218Z,101476.84
2023-08-11T04:22:45.886Z,101484.06
2023-08-11T04:25:13.927Z,101478.81
2023-08-11T04:27:40.843Z,101478.94
2023-08-11T04:30:09.136Z,101482.69
2023-08-11T04:32:35.898Z,101474.38
2023-08-11T04:35:02.498Z,101478.91
2023-08-11T04:37:29.081Z,101472.78
2023-08-11T04:39:55.693Z,101477.78
2023-08-11T04:42:22.231Z,101486.94
2023-08-11T04:44:48.981Z,101478.75
2023-08-11T04:47:16.088Z,101478.19
2023-08-11T04:49:44.487Z,101483.44
2023-08-11T04:52:11.303Z,101478.06
2023-08-11T04:54:37.895Z,101477.63
2023-08-11T04:57:04.840Z,101485.69
2023-08-11T04:59:32.664Z,101483.88
2023-08-11T05:02:00.187Z,101473.34
2023-08-11T05:04:27.334Z,101481.94
2023-08-11T05:06:53.973Z,101487.78
2023-08-11T05:09:20.733Z,101488.34
2023-08-11T05:11:47.296Z,101490.88
2023-08-11T05:14:17.163Z,101497.66
2023-08-11T05:16:43.773Z,101499.91
2023-08-11T05:19:10.319Z,101501.84
2023-08-11T05:21:38.925Z,101479.22
2023-08-11T05:24:06.110Z,101509.19
2023-08-11T05:26:32.757Z,101499.75
2023-08-11T05:28:59.827Z,101510.94
2023-08-11T05:31:26.572Z,101502.16
2023-08-11T05:33:53.807Z,101499.44
2023-08-11T05:36:20.462Z,101503.53
2023-08-11T05:38:47.137Z,101504.09
2023-08-11T05:41:13.770Z,101508.78
2023-08-11T05:43:40.573Z,101501.13
2023-08-11T05:46:10.159Z,101492.22
2023-08-11T05:48:37.142Z,101495.19
2023-08-11T05:51:05.236Z,101488.09
2023-08-11T05:53:31.938Z,101491.38
2023-08-11T05:55:58.858Z,101484.34
2023-08-11T05:58:25.452Z,101483.22
2023-08-11T06:00:52.791Z,101484.31
2023-08-11T06:03:19.423Z,101484.72
2023-08-11T06:05:46.043Z,101480.81
2023-08-11T06:08:12.599Z,101486.06
2023-08-11T06:10:39.194Z,101474.91
2023-08-11T06:13:05.768Z,101470.44
2023-08-11T06:15:32.404Z,101471.31
2023-08-11T06:17:59.136Z,101477.25
2023-08-11T06:20:38.672Z,101471.56
2023-08-11T06:23:06.052Z,101482.06
2023-08-11T06:25:32.644Z,101480.84
2023-08-11T06:27:59.198Z,101478.31
2023-08-11T06:30:28.870Z,101485.84
2023-08-11T06:32:55.992Z,101482.66
2023-08-11T06:35:23.352Z,101474.47
2023-08-11T06:37:50.337Z,101480.84
2023-08-11T06:40:17.058Z,101480.06
2023-08-11T06:42:46.597Z,101474.91
2023-08-11T06:45:13.262Z,101467.72
2023-08-11T06:47:39.856Z,101463.31
2023-08-11T06:50:06.886Z,101472.47
2023-08-11T06:52:33.434Z,101467.50
2023-08-11T06:55:00.022Z,101469.88
2023-08-11T06:57:26.641Z,101467.66
2023-08-11T06:59:53.321Z,101474.63
2023-08-11T07:02:20.018Z,101471.72
2023-08-11T07:04:46.591Z,101485.47
2023-08-11T07:07:13.274Z,101477.91
2023-08-11T07:09:39.881Z,101490.19
2023-08-11T07:12:07.339Z,101489.31
2023-08-11T07:14:33.918Z,101494.16
2023-08-11T07:17:00.634Z,101486.78
2023-08-11T07:19:27.235Z,101492.59
2023-08-11T07:21:53.810Z,101495.09
2023-08-11T07:24:20.365Z,101484.50
2023-08-11T07:26:46.912Z,101493.41
2023-08-11T07:29:13.515Z,101491.84
2023-08-11T07:31:40.886Z,101487.91
2023-08-11T07:34:07.552Z,101486.47
2023-08-11T07:36:34.179Z,101492.16
2023-08-11T07:39:16.861Z,101486.44
2023-08-11T07:41:47.333Z,101484.31
2023-08-11T07:44:13.981Z,101501.56
2023-08-11T07:46:40.753Z,101500.56
2023-08-11T07:49:07.790Z,101498.09
2023-08-11T07:51:49.264Z,101494.34
2023-08-11T07:54:17.954Z,101502.53
2023-08-11T07:56:45.420Z,101491.28
2023-08-11T07:59:12.431Z,101498.81
2023-08-11T08:01:39.245Z,101490.03
2023-08-11T08:04:06.209Z,101493.03
2023-08-11T08:06:33.527Z,101496.16
2023-08-11T08:09:00.171Z,101496.94
2023-08-11T08:11:27.460Z,101503.41
2023-08-11T08:13:54.086Z,101511.75
2023-08-11T08:16:20.766Z,101504.91
2023-08-11T08:18:47.530Z,101504.66
2023-08-11T08:21:14.219Z,101506.88
2023-08-11T08:23:40.788Z,101505.84
2023-08-11T08:26:08.472Z,101501.38
2023-08-11T08:28:35.029Z,101501.91
2023-08-11T08:31:01.578Z,101504.72
2023-08-11T08:33:28.434Z,101507.72
2023-08-11T08:35:55.285Z,101503.28
2023-08-11T08:38:21.835Z,101497.44
2023-08-11T08:40:48.652Z,101496.97
2023-08-11T08:43:15.299Z,101503.31
2023-08-11T08:45:44.451Z,101511.78
2023-08-11T08:48:20.579Z,101512.06
2023-08-11T08:50:47.092Z,101497.44
2023-08-11T08:53:13.957Z,101500.56
2023-08-11T08:55:41.788Z,101497.16
2023-08-11T08:58:10.493Z,101506.13
2023-08-11T09:00:37.123Z,101497.63
2023-08-11T09:03:04.665Z,101502.22
2023-08-11T09:05:33.075Z,101504.94
2023-08-11T09:07:59.683Z,101509.44
2023-08-11T09:10:26.496Z,101513.06
2023-08-11T09:12:53.111Z,101508.22
2023-08-11T09:15:19.715Z,101495.81
2023-08-11T09:17:48.312Z,101503.97
2023-08-11T09:20:19.040Z,101507.84
2023-08-11T09:22:45.580Z,101508.59
2023-08-11T09:25:13.429Z,101500.28
2023-08-11T09:27:40.099Z,101500.31
2023-08-11T09:30:10.612Z,101492.28
2023-08-11T09:32:37.335Z,101497.78
2023-08-11T09:35:11.541Z,101495.59
2023-08-11T09:37:44.596Z,101504.41
2023-08-11T09:40:12.665Z,101495.69
2023-08-11T09:42:39.546Z,101489.34
2023-08-11T09:45:06.795Z,101489.69
2023-08-11T09:47:33.349Z,101481.00
2023-08-11T09:50:00.355Z,101487.31
2023-08-11T09:52:28.620Z,101488.00
2023-08-11T09:54:57.248Z,101497.56
2023-08-11T09:57:25.263Z,101482.06
2023-08-11T09:59:54.676Z,101484.66
2023-08-11T10:02:26.300Z,101491.44
2023-08-11T10:05:07.919Z,101485.72
2023-08-11T10:07:40.240Z,101485.47
2023-08-11T10:10:10.075Z,101477.59
2023-08-11T10:12:41.878Z,101475.69
2023-08-11T10:15:11.108Z,101484.22
2023-08-11T10:17:38.143Z,101465.38
2023-08-11T10:20:05.927Z,101474.88
2023-08-11T10:22:33.797Z,101469.13
2023-08-11T10:25:04.006Z,101467.03
2023-08-11T10:27:31.697Z,101473.47
2023-08-11T10:29:58.762Z,101460.97
2023-08-11T10:32:30.017Z,101459.97
2023-08-11T10:34:57.612Z,101464.44
2023-08-11T10:37:33.993Z,101464.56
2023-08-11T10:40:10.440Z,101464.00
2023-08-11T10:42:37.634Z,101464.81
2023-08-11T10:45:24.775Z,101461.63
2023-08-11T10:47:54.478Z,101462.88
2023-08-11T10:50:22.328Z,101470.88
2023-08-11T10:53:19.697Z,101467.19
2023-08-11T10:56:06.293Z,101461.78
2023-08-11T10:58:38.654Z,101464.66
2023-08-11T11:01:06.005Z,101461.44
2023-08-11T11:03:34.948Z,101458.84
2023-08-11T11:06:05.756Z,101475.25
2023-08-11T11:08:32.408Z,101455.66
2023-08-11T11:10:58.966Z,101460.53
2023-08-11T11:13:25.751Z,101464.66
2023-08-11T11:15:52.736Z,101462.03
2023-08-11T11:18:19.463Z,101461.31
2023-08-11T11:20:46.014Z,101459.06
2023-08-11T11:23:12.766Z,101445.25
2023-08-11T11:25:39.336Z,101458.84
2023-08-11T11:28:06.181Z,101461.41
2023-08-11T11:30:34.094Z,101461.50
2023-08-11T11:33:02.862Z,101453.75
2023-08-11T11:35:31.333Z,101456.31
2023-08-11T11:37:59.951Z,101456.50
2023-08-11T11:40:26.567Z,101431.72
2023-08-11T11:42:53.137Z,101464.66
2023-08-11T11:45:20.474Z,101457.09
2023-08-11T11:47:48.279Z,101452.06
2023-08-11T11:50:14.994Z,101455.25
2023-08-11T11:52:47.799Z,101451.63
2023-08-11T11:55:14.522Z,101436.41
2023-08-11T11:57:41.191Z,101439.06
2023-08-11T12:00:17.171Z,101422.59
2023-08-11T12:02:45.154Z,101433.09
2023-08-11T12:05:13.776Z,101441.75
2023-08-11T12:07:41.363Z,101439.53
2023-08-11T12:10:08.436Z,101434.25
2023-08-11T12:12:35.093Z,101443.34
2023-08-11T12:15:07.050Z,101429.59
2023-08-11T12:17:35.134Z,101437.63
2023-08-11T12:20:05.140Z,101422.75
2023-08-11T12:22:31.744Z,101429.47
2023-08-11T12:24:58.339Z,101422.56
2023-08-11T12:27:24.962Z,101421.13
2023-08-11T12:29:51.510Z,101427.09
2023-08-11T12:32:18.061Z,101432.50
2023-08-11T12:34:44.594Z,101420.63
2023-08-11T12:37:13.315Z,101431.47
2023-08-11T12:39:40.093Z,101419.03
2023-08-11T12:42:07.039Z,101420.13
2023-08-11T12:44:33.891Z,101416.13
2023-08-11T12:47:00.476Z,101419.09
2023-08-11T12:49:27.044Z,101426.34
2023-08-11T12:51:54.028Z,101419.53
2023-08-11T12:54:20.680Z,101418.06
2023-08-11T12:56:47.885Z,101402.19
2023-08-11T12:59:14.684Z,101422.56
2023-08-11T13:01:41.311Z,101402.84
2023-08-11T13:04:08.348Z,101402.34
2023-08-11T13:06:35.322Z,101406.63
2023-08-11T13:09:02.202Z,101414.59
2023-08-11T13:11:28.928Z,101397.78
2023-08-11T13:13:55.739Z,101399.69
2023-08-11T13:16:22.515Z,101393.63
2023-08-11T13:18:49.173Z,101397.31
2023-08-11T13:21:15.725Z,101390.63
2023-08-11T13:23:42.254Z,101389.41
2023-08-11T13:26:09.072Z,101384.25
2023-08-11T13:28:35.731Z,101394.06
2023-08-11T13:31:02.521Z,101383.50
2023-08-11T13:33:29.082Z,101392.03
2023-08-11T13:35:55.612Z,101384.06
2023-08-11T13:38:23.813Z,101379.91
2023-08-11T13:40:50.490Z,101380.16
2023-08-11T13:43:20.425Z,101387.69
2023-08-11T13:45:47.059Z,101384.03
2023-08-11T13:48:13.618Z,101375.03
2023-08-11T13:50:40.659Z,101381.22
2023-08-11T13:53:07.251Z,101387.59
2023-08-11T13:55:34.284Z,101383.72
2023-08-11T13:58:00.869Z,101369.88
2023-08-11T14:00:29.696Z,101370.66
2023-08-11T14:02:58.044Z,101368.31
2023-08-11T14:05:25.767Z,101363.13
2023-08-11T14:07:52.384Z,101349.16
2023-08-11T14:10:20.181Z,101369.59
2023-08-11T14:12:47.801Z,101346.78
2023-08-11T14:15:14.839Z,101371.03
2023-08-11T14:17:41.896Z,101369.50
2023-08-11T14:20:09.155Z,101364.72
2023-08-11T14:22:35.709Z,101377.88
2023-08-11T14:25:02.278Z,101365.28
2023-08-11T14:27:28.912Z,101370.38
2023-08-11T14:29:55.460Z,101365.69
2023-08-11T14:32:26.241Z,101361.13
2023-08-11T14:34:53.783Z,101370.28
2023-08-11T14:37:21.693Z,101360.28
2023-08-11T14:39:48.436Z,101363.94
2023-08-11T14:42:15.436Z,101358.22
2023-08-11T14:44:42.528Z,101360.31
2023-08-11T14:47:14.267Z,101352.13
2023-08-11T14:49:42.122Z,101353.16
2023-08-11T14:52:09.054Z,101346.25
2023-08-11T14:54:35.962Z,101351.81
2023-08-11T14:57:02.632Z,101343.94
2023-08-11T14:59:29.472Z,101347.63
2023-08-11T15:01:56.409Z,101336.00
2023-08-11T15:04:22.966Z,101337.09
2023-08-11T15:06:49.538Z,101335.78
2023-08-11T15:09:16.181Z,101333.00
2023-08-11T15:11:42.713Z,101323.50
2023-08-11T15:14:10.998Z,101328.47
2023-08-11T15:16:37.661Z,101329.66
2023-08-11T15:19:04.394Z,101323.28
2023-08-11T15:21:30.952Z,101328.34
2023-08-11T15:23:57.600Z,101321.09
2023-08-11T15:26:25.383Z,101323.41
2023-08-11T15:28:52.239Z,101328.25
2023-08-11T15:31:19.203Z,101327.41
2023-08-11T15:33:45.874Z,101320.13
2023-08-11T15:36:12.446Z,101321.09
2023-08-11T15:38:39.033Z,101314.41
2023-08-11T15:41:05.658Z,101318.50
2023-08-11T15:43:32.888Z,101310.84
2023-08-11T15:45:59.641Z,101308.75
2023-08-11T15:48:28.497Z,101313.44
2023-08-11T15:50:55.255Z,101320.66
2023-08-11T15:53:21.926Z,101312.25
2023-08-11T15:55:48.494Z,101303.19
2023-08-11T15:58:15.054Z,101317.53
2023-08-11T16:00:42.180Z,101303.06
2023-08-11T16:03:08.902Z,101305.06
2023-08-11T16:05:35.563Z,101299.97
2023-08-11T16:08:02.077Z,101301.28
2023-08-11T16:10:32.784Z,101305.06
2023-08-11T16:12:59.483Z,101304.72
2023-08-11T16:15:25.997Z,101296.78
2023-08-11T16:17:54.803Z,101297.13
2023-08-11T16:20:21.774Z,101300.28
2023-08-11T16:22:48.819Z,101290.81
2023-08-11T16:25:15.461Z,101292.06
2023-08-11T16:27:42.074Z,101296.47
2023-08-11T16:30:11.290Z,101289.44
2023-08-11T16:32:38.000Z,101285.91
2023-08-11T16:35:04.805Z,101283.81
2023-08-11T16:37:31.353Z,101281.38
2023-08-11T16:39:58.011Z,101273.06
2023-08-11T16:42:24.621Z,101288.88
2023-08-11T16:44:51.206Z,101280.44
2023-08-11T16:47:17.813Z,101283.34
2023-08-11T16:49:44.464Z,101275.81
2023-08-11T16:52:11.561Z,101285.81
2023-08-11T16:54:38.409Z,101272.09
2023-08-11T16:57:04.960Z,101270.56
2023-08-11T16:59:31.495Z,101262.69
2023-08-11T17:01:58.048Z,101268.59
2023-08-11T17:04:24.939Z,101262.63
2023-08-11T17:06:51.684Z,101267.41
2023-08-11T17:09:18.765Z,101258.69
2023-08-11T17:11:45.408Z,101267.63
2023-08-11T17:14:12.022Z,101266.44
2023-08-11T17:16:38.919Z,101270.63
2023-08-11T17:19:05.589Z,101266.97
2023-08-11T17:21:32.199Z,101269.06
2023-08-11T17:23:58.770Z,101257.38
2023-08-11T17:26:25.431Z,101261.38
2023-08-11T17:28:56.814Z,101263.69
2023-08-11T17:31:24.481Z,101259.84
2023-08-11T17:33:51.250Z,101265.91
2023-08-11T17:36:20.146Z,101256.88
2023-08-11T17:38:47.491Z,101261.66
2023-08-11T17:41:14.313Z,101257.28
2023-08-11T17:43:40.919Z,101258.13
2023-08-11T17:46:07.666Z,101254.97
2023-08-11T17:48:34.337Z,101256.63
2023-08-11T17:51:02.116Z,101254.44
2023-08-11T17:53:28.776Z,101252.03
2023-08-11T17:55:55.338Z,101255.91
2023-08-11T17:58:21.938Z,101261.53
2023-08-11T18:00:48.800Z,101233.09
2023-08-11T18:03:15.507Z,101254.50
2023-08-11T18:05:42.239Z,101254.13
2023-08-11T18:08:08.871Z,101256.09
2023-08-11T18:10:35.948Z,101253.53
2023-08-11T18:13:02.642Z,101254.53
2023-08-11T18:15:29.322Z,101265.16
2023-08-11T18:17:56.023Z,101256.59
2023-08-11T18:20:22.792Z,101247.69
2023-08-11T18:22:49.599Z,101245.53
2023-08-11T18:25:16.552Z,101251.22
2023-08-11T18:27:43.228Z,101245.59
2023-08-11T18:30:10.384Z,101243.84
2023-08-11T18:32:37.027Z,101251.06
2023-08-11T18:35:03.897Z,101246.03
2023-08-11T18:37:30.470Z,101252.53
2023-08-11T18:39:57.148Z,101248.81
2023-08-11T18:42:23.754Z,101259.78
2023-08-11T18:44:50.602Z,101254.19
2023-08-11T18:47:17.187Z,101249.16
2023-08-11T18:49:43.798Z,101251.06
2023-08-11T18:52:13.348Z,101242.91
2023-08-11T18:54:41.812Z,101247.28
2023-08-11T18:57:13.349Z,101237.06
2023-08-11T18:59:41.075Z,101237.97
2023-08-11T19:02:08.529Z,101235.34
2023-08-11T19:04:35.358Z,101241.34
2023-08-11T19:07:01.998Z,101251.88
2023-08-11T19:09:28.640Z,101242.25
2023-08-11T19:11:55.370Z,101247.63
2023-08-11T19:14:22.136Z,101235.50
2023-08-11T19:16:48.832Z,101244.38
2023-08-11T19:19:16.263Z,101229.19
2023-08-11T19:21:45.030Z,101233.94
2023-08-11T19:24:13.164Z,101233.78
2023-08-11T19:26:41.712Z,101237.72
2023-08-11T19:29:08.734Z,101241.00
2023-08-11T19:31:35.658Z,101240.00
2023-08-11T19:34:04.677Z,101235.09
2023-08-11T19:36:32.381Z,101235.28
2023-08-11T19:39:00.689Z,101233.25
2023-08-11T19:41:27.216Z,101240.22
2023-08-11T19:43:53.824Z,101244.75
2023-08-11T19:46:20.388Z,101242.09
2023-08-11T19:48:47.306Z,101242.28
2023-08-11T19:51:14.239Z,101243.94
2023-08-11T19:53:40.859Z,101237.16
2023-08-11T19:56:10.378Z,101238.59
2023-08-11T19:58:37.696Z,101233.66
2023-08-11T20:01:09.539Z,101234.50
2023-08-11T20:03:36.134Z,101248.47
2023-08-11T20:06:03.650Z,101234.88
2023-08-11T20:08:33.129Z,101241.25
2023-08-11T20:11:00.209Z,101243.94
2023-08-11T20:13:26.754Z,101230.34
2023-08-11T20:15:57.895Z,101235.69
2023-08-11T20:18:25.109Z,101235.94
2023-08-11T20:20:51.657Z,101234.06
2023-08-11T20:23:18.584Z,101236.13
2023-08-11T20:25:45.276Z,101247.63
2023-08-11T20:28:14.626Z,101263.00
2023-08-11T20:30:43.717Z,101263.38
2023-08-11T20:33:10.618Z,101271.66
2023-08-11T20:35:37.384Z,101288.56
2023-08-11T20:38:04.205Z,101281.97
2023-08-11T20:40:33.884Z,101287.53
2023-08-11T20:43:01.512Z,101289.78
2023-08-11T20:45:31.021Z,101284.84
2023-08-11T20:48:12.924Z,101290.19
2023-08-11T20:50:39.460Z,101289.56
2023-08-11T20:53:06.033Z,101293.28
2023-08-11T20:55:32.638Z,101306.00
2023-08-11T20:57:59.200Z,101308.44
2023-08-11T21:00:25.724Z,101309.41
2023-08-11T21:02:52.347Z,101310.84
2023-08-11T21:05:19.072Z,101315.34
2023-08-11T21:07:45.636Z,101317.50
2023-08-11T21:10:15.089Z,101330.22
2023-08-11T21:12:42.880Z,101332.22
2023-08-11T21:15:09.854Z,101334.75
2023-08-11T21:17:36.401Z,101335.94
2023-08-11T21:20:03.097Z,101355.03
2023-08-11T21:22:29.807Z,101350.69
2023-08-11T21:24:56.376Z,101351.44
2023-08-11T21:27:22.944Z,101364.13
2023-08-11T21:29:49.491Z,101361.03
2023-08-11T21:32:16.070Z,101362.63
2023-08-11T21:34:42.725Z,101367.34
2023-08-11T21:37:09.547Z,101369.63
2023-08-11T21:39:40.258Z,101375.78
2023-08-11T21:42:10.428Z,101371.66
2023-08-11T21:44:37.039Z,101385.13
2023-08-11T21:47:04.516Z,101375.44
2023-08-11T21:49:31.116Z,101374.41
2023-08-11T21:51:57.795Z,101377.44
2023-08-11T21:54:24.713Z,101372.69
2023-08-11T21:56:51.298Z,101373.69
2023-08-11T21:59:17.809Z,101375.34
2023-08-11T22:01:45.279Z,101378.41
2023-08-11T22:04:12.024Z,101372.44
2023-08-11T22:06:38.609Z,101366.47
2023-08-11T22:09:05.571Z,101376.13
2023-08-11T22:11:36.850Z,101378.97
2023-08-11T22:14:05.158Z,101380.00
2023-08-11T22:16:33.156Z,101378.88
2023-08-11T22:19:00.280Z,101379.69
2023-08-11T22:21:26.947Z,101356.03
2023-08-11T22:23:53.537Z,101357.50
2023-08-11T22:26:20.298Z,101355.81
2023-08-11T22:28:46.959Z,101342.19
2023-08-11T22:31:13.570Z,101350.88
2023-08-11T22:33:40.214Z,101354.38
2023-08-11T22:36:06.890Z,101342.25
2023-08-11T22:38:33.817Z,101338.69
2023-08-11T22:41:00.998Z,101338.34
2023-08-11T22:43:28.261Z,101339.75
2023-08-11T22:45:54.983Z,101349.50
2023-08-11T22:48:21.907Z,101349.69
2023-08-11T22:50:48.581Z,101347.03
2023-08-11T22:53:16.311Z,101345.09
2023-08-11T22:55:42.860Z,101346.88
2023-08-11T22:58:09.371Z,101348.25
2023-08-11T23:00:36.227Z,101348.34
2023-08-11T23:03:02.850Z,101342.19
2023-08-11T23:05:29.411Z,101360.91
2023-08-11T23:07:56.727Z,101364.31
2023-08-11T23:10:23.668Z,101362.19
2023-08-11T23:12:50.209Z,101359.06
2023-08-11T23:15:16.948Z,101364.19
2023-08-11T23:17:43.611Z,101366.22
2023-08-11T23:20:10.595Z,101359.06
2023-08-11T23:22:37.422Z,101360.34
2023-08-11T23:25:06.358Z,101356.97
2023-08-11T23:27:33.147Z,101354.94
2023-08-11T23:30:01.581Z,101350.81
2023-08-11T23:32:33.462Z,101345.78
2023-08-11T23:35:00.712Z,101341.00
2023-08-11T23:37:28.691Z,101352.91
2023-08-11T23:39:58.814Z,101340.44
2023-08-11T23:42:25.794Z,101341.91
2023-08-11T23:44:52.571Z,101347.59
2023-08-11T23:47:19.233Z,101342.00
2023-08-11T23:49:46.145Z,101337.97
2023-08-11T23:52:12.788Z,101342.66
2023-08-11T23:54:39.509Z,101333.66
2023-08-11T23:57:06.387Z,101334.28
2023-08-11T23:59:34.238Z,101333.25
